sensor_id;sensor_type;location;lat;lon;timestamp;pressure;altitude;pressure_sealevel;temperature;humidity
28665;BME280;15850;47.524;7.814;2023-10-31T00:02:15;96414.75;;;9.21;100.00
28665;BME280;15850;47.524;7.814;2023-10-31T00:04:41;96399.75;;;9.27;100.00
28665;BME280;15850;47.524;7.814;2023-10-31T00:07:07;96481.50;;;9.87;100.00
28665;BME280;15850;47.524;7.814;2023-10-31T00:09:32;96390.63;;;9.16;100.00
28665;BME280;15850;47.524;7.814;2023-10-31T00:11:58;96342.31;;;9.02;100.00
28665;BME280;15850;47.524;7.814;2023-10-31T00:14:25;96027.03;;;6.93;100.00
28665;BME280;15850;47.524;7.814;2023-10-31T00:16:51;96481.81;;;10.05;100.00
28665;BME280;15850;47.524;7.814;2023-10-31T00:19:16;95982.06;;;6.66;100.00
28665;BME280;15850;47.524;7.814;2023-10-31T00:21:42;96443.06;;;9.43;100.00
28665;BME280;15850;47.524;7.814;2023-10-31T00:24:08;96506.66;;;9.61;100.00
28665;BME280;15850;47.524;7.814;2023-10-31T00:26:34;96322.06;;;8.38;100.00
28665;BME280;15850;47.524;7.814;2023-10-31T00:28:59;96360.19;;;8.64;100.00
28665;BME280;15850;47.524;7.814;2023-10-31T00:31:26;96210.03;;;7.91;100.00
28665;BME280;15850;47.524;7.814;2023-10-31T00:33:52;96482.78;;;9.71;100.00
28665;BME280;15850;47.524;7.814;2023-10-31T00:36:18;96480.28;;;9.62;100.00
28665;BME280;15850;47.524;7.814;2023-10-31T00:38:43;96529.66;;;9.48;100.00
28665;BME280;15850;47.524;7.814;2023-10-31T00:41:09;95982.56;;;6.04;100.00
28665;BME280;15850;47.524;7.814;2023-10-31T00:43:35;96239.47;;;7.42;100.00
28665;BME280;15850;47.524;7.814;2023-10-31T00:46:03;96499.09;;;9.32;100.00
28665;BME280;15850;47.524;7.814;2023-10-31T00:48:30;96511.25;;;9.38;100.00
28665;BME280;15850;47.524;7.814;2023-10-31T00:50:56;96530.88;;;9.31;100.00
28665;BME280;15850;47.524;7.814;2023-10-31T00:53:22;96419.53;;;8.89;100.00
28665;BME280;15850;47.524;7.814;2023-10-31T00:55:47;96447.09;;;9.10;100.00
28665;BME280;15850;47.524;7.814;2023-10-31T00:58:13;96513.00;;;9.69;100.00
28665;BME280;15850;47.524;7.814;2023-10-31T01:00:39;95938.31;;;6.09;100.00
28665;BME280;15850;47.524;7.814;2023-10-31T01:03:04;95958.16;;;6.32;100.00
28665;BME280;15850;47.524;7.814;2023-10-31T01:05:31;96497.44;;;9.89;100.00
28665;BME280;15850;47.524;7.814;2023-10-31T01:07:57;96287.09;;;8.33;100.00
28665;BME280;15850;47.524;7.814;2023-10-31T01:10:22;96172.44;;;7.70;100.00
28665;BME280;15850;47.524;7.814;2023-10-31T01:12:48;96515.88;;;9.99;100.00
28665;BME280;15850;47.524;7.814;2023-10-31T01:15:14;96516.63;;;10.00;100.00
28665;BME280;15850;47.524;7.814;2023-10-31T01:17:42;95725.47;;;4.74;100.00
28665;BME280;15850;47.524;7.814;2023-10-31T01:20:10;96054.03;;;6.74;100.00
28665;BME280;15850;47.524;7.814;2023-10-31T01:22:38;96046.38;;;6.60;100.00
28665;BME280;15850;47.524;7.814;2023-10-31T01:25:04;96537.19;;;9.97;100.00
28665;BME280;15850;47.524;7.814;2023-10-31T01:27:30;96537.66;;;10.03;100.00
28665;BME280;15850;47.524;7.814;2023-10-31T01:29:57;96531.16;;;10.07;100.00
28665;BME280;15850;47.524;7.814;2023-10-31T01:32:22;96565.88;;;10.18;100.00
28665;BME280;15850;47.524;7.814;2023-10-31T01:34:48;96154.13;;;7.64;100.00
28665;BME280;15850;47.524;7.814;2023-10-31T01:37:14;96533.44;;;10.05;100.00
28665;BME280;15850;47.524;7.814;2023-10-31T01:39:41;96564.72;;;10.19;100.00
28665;BME280;15850;47.524;7.814;2023-10-31T01:42:07;96586.69;;;10.29;100.00
28665;BME280;15850;47.524;7.814;2023-10-31T01:44:33;96529.84;;;10.21;100.00
28665;BME280;15850;47.524;7.814;2023-10-31T01:46:58;95717.09;;;4.94;100.00
28665;BME280;15850;47.524;7.814;2023-10-31T01:49:24;96042.16;;;6.78;100.00
28665;BME280;15850;47.524;7.814;2023-10-31T01:51:50;96276.00;;;8.38;100.00
28665;BME280;15850;47.524;7.814;2023-10-31T01:54:16;96572.09;;;10.18;100.00
28665;BME280;15850;47.524;7.814;2023-10-31T01:56:44;95931.66;;;6.22;100.00
28665;BME280;15850;47.524;7.814;2023-10-31T01:59:10;96148.06;;;7.51;100.00
28665;BME280;15850;47.524;7.814;2023-10-31T02:01:38;96498.09;;;9.82;100.00
28665;BME280;15850;47.524;7.814;2023-10-31T02:04:04;96083.97;;;7.00;100.00
28665;BME280;15850;47.524;7.814;2023-10-31T02:06:30;96041.59;;;6.69;100.00
28665;BME280;15850;47.524;7.814;2023-10-31T02:08:56;96582.34;;;10.05;100.00
28665;BME280;15850;47.524;7.814;2023-10-31T02:11:22;96566.22;;;9.93;100.00
28665;BME280;15850;47.524;7.814;2023-10-31T02:13:49;96319.53;;;8.29;100.00
28665;BME280;15850;47.524;7.814;2023-10-31T02:16:14;96164.00;;;7.21;100.00
28665;BME280;15850;47.524;7.814;2023-10-31T02:18:40;96610.31;;;10.06;100.00
28665;BME280;15850;47.524;7.814;2023-10-31T02:21:06;96606.09;;;10.08;100.00
28665;BME280;15850;47.524;7.814;2023-10-31T02:23:33;96616.97;;;10.08;100.00
28665;BME280;15850;47.524;7.814;2023-10-31T02:25:58;96264.91;;;7.72;100.00
28665;BME280;15850;47.524;7.814;2023-10-31T02:28:24;96501.16;;;9.38;100.00
28665;BME280;15850;47.524;7.814;2023-10-31T02:30:50;96271.50;;;7.56;100.00
28665;BME280;15850;47.524;7.814;2023-10-31T02:33:15;96107.22;;;6.70;100.00
28665;BME280;15850;47.524;7.814;2023-10-31T02:35:41;96098.59;;;6.64;100.00
28665;BME280;15850;47.524;7.814;2023-10-31T02:38:06;96334.59;;;8.11;100.00
28665;BME280;15850;47.524;7.814;2023-10-31T02:40:34;96147.31;;;6.83;100.00
28665;BME280;15850;47.524;7.814;2023-10-31T02:43:00;96320.63;;;7.73;100.00
28665;BME280;15850;47.524;7.814;2023-10-31T02:45:26;96367.44;;;8.25;100.00
28665;BME280;15850;47.524;7.814;2023-10-31T02:47:51;96661.28;;;10.12;100.00
28665;BME280;15850;47.524;7.814;2023-10-31T02:50:17;96534.19;;;9.40;100.00
28665;BME280;15850;47.524;7.814;2023-10-31T02:52:43;96641.44;;;9.89;100.00
28665;BME280;15850;47.524;7.814;2023-10-31T02:55:09;96433.41;;;8.33;100.00
28665;BME280;15850;47.524;7.814;2023-10-31T02:57:37;96409.06;;;8.17;100.00
28665;BME280;15850;47.524;7.814;2023-10-31T03:00:03;96534.13;;;9.02;100.00
28665;BME280;15850;47.524;7.814;2023-10-31T03:02:28;96586.69;;;9.48;100.00
28665;BME280;15850;47.524;7.814;2023-10-31T03:04:54;96575.72;;;9.25;100.00
28665;BME280;15850;47.524;7.814;2023-10-31T03:07:20;96671.47;;;9.77;100.00
28665;BME280;15850;47.524;7.814;2023-10-31T03:09:47;96560.16;;;8.87;100.00
28665;BME280;15850;47.524;7.814;2023-10-31T03:12:13;96269.00;;;7.15;100.00
28665;BME280;15850;47.524;7.814;2023-10-31T03:14:40;96564.09;;;9.25;100.00
28665;BME280;15850;47.524;7.814;2023-10-31T03:17:06;96669.09;;;9.95;100.00
28665;BME280;15850;47.524;7.814;2023-10-31T03:19:31;96684.19;;;9.92;100.00
28665;BME280;15850;47.524;7.814;2023-10-31T03:21:57;96667.66;;;9.81;100.00
28665;BME280;15850;47.524;7.814;2023-10-31T03:24:22;96656.81;;;9.81;100.00
28665;BME280;15850;47.524;7.814;2023-10-31T03:26:48;96410.88;;;8.29;100.00
28665;BME280;15850;47.524;7.814;2023-10-31T03:29:13;96453.25;;;8.53;100.00
28665;BME280;15850;47.524;7.814;2023-10-31T03:31:41;96655.72;;;9.67;100.00
28665;BME280;15850;47.524;7.814;2023-10-31T03:34:06;96659.00;;;9.76;100.00
28665;BME280;15850;47.524;7.814;2023-10-31T03:36:32;96486.41;;;8.46;100.00
28665;BME280;15850;47.524;7.814;2023-10-31T03:38:57;96180.25;;;6.42;100.00
28665;BME280;15850;47.524;7.814;2023-10-31T03:41:24;96591.19;;;9.05;100.00
28665;BME280;15850;47.524;7.814;2023-10-31T03:43:50;96583.75;;;9.02;100.00
28665;BME280;15850;47.524;7.814;2023-10-31T03:46:15;96679.41;;;9.50;100.00
28665;BME280;15850;47.524;7.814;2023-10-31T03:48:43;96700.00;;;9.51;100.00
28665;BME280;15850;47.524;7.814;2023-10-31T03:51:08;96279.25;;;6.78;100.00
28665;BME280;15850;47.524;7.814;2023-10-31T03:53:34;96603.88;;;9.01;100.00
28665;BME280;15850;47.524;7.814;2023-10-31T03:55:59;96738.00;;;9.51;100.00
28665;BME280;15850;47.524;7.814;2023-10-31T03:58:25;96693.28;;;9.45;100.00
28665;BME280;15850;47.524;7.814;2023-10-31T04:00:50;96381.81;;;7.30;100.00
28665;BME280;15850;47.524;7.814;2023-10-31T04:03:16;96544.47;;;8.45;100.00
28665;BME280;15850;47.524;7.814;2023-10-31T04:05:43;96543.31;;;8.46;100.00
28665;BME280;15850;47.524;7.814;2023-10-31T04:08:09;96543.81;;;8.36;100.00
28665;BME280;15850;47.524;7.814;2023-10-31T04:10:35;96176.50;;;6.02;100.00
28665;BME280;15850;47.524;7.814;2023-10-31T04:13:00;96540.53;;;8.42;100.00
28665;BME280;15850;47.524;7.814;2023-10-31T04:15:26;96688.81;;;9.37;100.00
28665;BME280;15850;47.524;7.814;2023-10-31T04:17:52;96673.81;;;9.43;100.00
28665;BME280;15850;47.524;7.814;2023-10-31T04:20:18;96157.34;;;6.07;100.00
28665;BME280;15850;47.524;7.814;2023-10-31T04:22:45;96464.53;;;8.07;100.00
28665;BME280;15850;47.524;7.814;2023-10-31T04:25:11;96306.75;;;6.96;100.00
28665;BME280;15850;47.524;7.814;2023-10-31T04:27:36;96664.06;;;9.23;100.00
28665;BME280;15850;47.524;7.814;2023-10-31T04:30:02;96610.63;;;9.07;100.00
28665;BME280;15850;47.524;7.814;2023-10-31T04:32:28;96686.44;;;9.51;100.00
28665;BME280;15850;47.524;7.814;2023-10-31T04:34:53;96688.00;;;9.52;100.00
28665;BME280;15850;47.524;7.814;2023-10-31T04:37:19;96691.69;;;9.44;100.00
28665;BME280;15850;47.524;7.814;2023-10-31T04:39:46;96622.59;;;9.06;100.00
28665;BME280;15850;47.524;7.814;2023-10-31T04:42:12;96559.28;;;8.83;100.00
28665;BME280;15850;47.524;7.814;2023-10-31T04:44:37;96540.69;;;8.65;100.00
28665;BME280;15850;47.524;7.814;2023-10-31T04:47:03;96557.47;;;8.71;100.00
28665;BME280;15850;47.524;7.814;2023-10-31T04:49:28;96677.94;;;9.37;100.00
28665;BME280;15850;47.524;7.814;2023-10-31T04:51:54;96663.34;;;9.26;100.00
28665;BME280;15850;47.524;7.814;2023-10-31T04:54:19;96560.97;;;8.56;100.00
28665;BME280;15850;47.524;7.814;2023-10-31T04:56:47;96534.81;;;8.32;100.00
28665;BME280;15850;47.524;7.814;2023-10-31T04:59:12;96568.59;;;8.50;100.00
28665;BME280;15850;47.524;7.814;2023-10-31T05:01:38;96704.13;;;9.45;100.00
28665;BME280;15850;47.524;7.814;2023-10-31T05:04:04;96700.16;;;9.58;100.00
28665;BME280;15850;47.524;7.814;2023-10-31T05:06:29;96628.63;;;9.15;100.00
28665;BME280;15850;47.524;7.814;2023-10-31T05:08:55;96701.00;;;9.62;100.00
28665;BME280;15850;47.524;7.814;2023-10-31T05:11:20;96176.84;;;6.01;100.00
28665;BME280;15850;47.524;7.814;2023-10-31T05:13:47;96699.38;;;9.58;100.00
28665;BME280;15850;47.524;7.814;2023-10-31T05:16:13;96557.81;;;8.69;100.00
28665;BME280;15850;47.524;7.814;2023-10-31T05:18:39;96437.56;;;7.79;100.00
28665;BME280;15850;47.524;7.814;2023-10-31T05:21:05;96711.47;;;9.60;100.00
28665;BME280;15850;47.524;7.814;2023-10-31T05:23:31;96436.34;;;7.76;100.00
28665;BME280;15850;47.524;7.814;2023-10-31T05:25:56;96339.94;;;6.80;100.00
28665;BME280;15850;47.524;7.814;2023-10-31T05:28:22;96712.44;;;9.36;100.00
28665;BME280;15850;47.524;7.814;2023-10-31T05:30:49;96710.50;;;9.37;100.00
28665;BME280;15850;47.524;7.814;2023-10-31T05:33:15;96261.72;;;6.44;100.00
28665;BME280;15850;47.524;7.814;2023-10-31T05:35:41;95842.22;;;3.72;100.00
28665;BME280;15850;47.524;7.814;2023-10-31T05:38:07;96296.00;;;6.55;100.00
28665;BME280;15850;47.524;7.814;2023-10-31T05:40:32;96590.97;;;8.79;100.00
28665;BME280;15850;47.524;7.814;2023-10-31T05:42:58;95961.50;;;4.78;100.00
28665;BME280;15850;47.524;7.814;2023-10-31T05:45:23;96423.50;;;7.73;100.00
28665;BME280;15850;47.524;7.814;2023-10-31T05:47:50;96695.16;;;9.60;100.00
28665;BME280;15850;47.524;7.814;2023-10-31T05:50:16;96479.06;;;8.15;100.00
28665;BME280;15850;47.524;7.814;2023-10-31T05:52:42;96438.53;;;7.87;100.00
28665;BME280;15850;47.524;7.814;2023-10-31T05:55:08;96386.03;;;7.44;100.00
28665;BME280;15850;47.524;7.814;2023-10-31T05:57:33;96446.03;;;7.77;100.00
28665;BME280;15850;47.524;7.814;2023-10-31T05:59:59;96721.19;;;9.61;100.00
28665;BME280;15850;47.524;7.814;2023-10-31T06:02:25;96205.06;;;6.03;100.00
28665;BME280;15850;47.524;7.814;2023-10-31T06:04:59;96761.41;;;9.40;100.00
28665;BME280;15850;47.524;7.814;2023-10-31T06:07:25;96760.28;;;9.41;100.00
28665;BME280;15850;47.524;7.814;2023-10-31T06:09:51;96406.13;;;7.15;100.00
28665;BME280;15850;47.524;7.814;2023-10-31T06:12:17;95986.13;;;4.52;100.00
28665;BME280;15850;47.524;7.814;2023-10-31T06:14:45;96749.66;;;9.36;100.00
28665;BME280;15850;47.524;7.814;2023-10-31T06:17:13;96414.16;;;7.11;100.00
28665;BME280;15850;47.524;7.814;2023-10-31T06:19:38;96784.78;;;9.13;100.00
28665;BME280;15850;47.524;7.814;2023-10-31T06:22:13;96428.34;;;7.08;100.00
28665;BME280;15850;47.524;7.814;2023-10-31T06:24:42;96742.75;;;9.23;100.00
28665;BME280;15850;47.524;7.814;2023-10-31T06:27:10;96429.22;;;6.96;100.00
28665;BME280;15850;47.524;7.814;2023-10-31T06:29:36;96617.38;;;8.50;100.00
28665;BME280;15850;47.524;7.814;2023-10-31T06:32:02;96742.75;;;9.23;100.00
28665;BME280;15850;47.524;7.814;2023-10-31T06:34:27;96699.63;;;8.86;100.00
28665;BME280;15850;47.524;7.814;2023-10-31T06:36:53;96769.38;;;9.33;100.00
28665;BME280;15850;47.524;7.814;2023-10-31T06:39:19;96771.38;;;9.36;100.00
28665;BME280;15850;47.524;7.814;2023-10-31T06:41:45;96753.28;;;9.08;100.00
28665;BME280;15850;47.524;7.814;2023-10-31T06:44:10;96775.06;;;9.28;100.00
28665;BME280;15850;47.524;7.814;2023-10-31T06:46:36;96767.56;;;9.21;100.00
28665;BME280;15850;47.524;7.814;2023-10-31T06:49:02;96796.63;;;9.21;100.00
28665;BME280;15850;47.524;7.814;2023-10-31T06:51:27;96444.50;;;7.04;100.00
28665;BME280;15850;47.524;7.814;2023-10-31T06:53:53;96741.34;;;8.97;100.00
28665;BME280;15850;47.524;7.814;2023-10-31T06:56:20;96427.75;;;6.99;100.00
28665;BME280;15850;47.524;7.814;2023-10-31T06:58:45;96804.31;;;9.34;100.00
28665;BME280;15850;47.524;7.814;2023-10-31T07:01:11;96798.00;;;9.30;100.00
28665;BME280;15850;47.524;7.814;2023-10-31T07:03:36;96789.06;;;9.30;100.00
28665;BME280;15850;47.524;7.814;2023-10-31T07:06:02;96790.84;;;9.38;100.00
28665;BME280;15850;47.524;7.814;2023-10-31T07:08:28;96792.25;;;9.48;100.00
28665;BME280;15850;47.524;7.814;2023-10-31T07:10:53;96795.72;;;9.48;100.00
28665;BME280;15850;47.524;7.814;2023-10-31T07:13:20;96792.66;;;9.50;100.00
28665;BME280;15850;47.524;7.814;2023-10-31T07:15:46;96801.16;;;9.48;100.00
28665;BME280;15850;47.524;7.814;2023-10-31T07:18:11;96712.72;;;8.84;100.00
28665;BME280;15850;47.524;7.814;2023-10-31T07:20:37;96801.00;;;9.41;100.00
28665;BME280;15850;47.524;7.814;2023-10-31T07:23:02;96703.81;;;8.83;100.00
28665;BME280;15850;47.524;7.814;2023-10-31T07:25:28;96539.38;;;7.68;100.00
28665;BME280;15850;47.524;7.814;2023-10-31T07:27:53;96801.94;;;9.33;100.00
28665;BME280;15850;47.524;7.814;2023-10-31T07:30:20;96838.72;;;9.30;100.00
28665;BME280;15850;47.524;7.814;2023-10-31T07:32:46;96631.13;;;8.13;100.00
28665;BME280;15850;47.524;7.814;2023-10-31T07:35:11;96809.84;;;9.38;100.00
28665;BME280;15850;47.524;7.814;2023-10-31T07:37:37;96732.63;;;8.88;100.00
28665;BME280;15850;47.524;7.814;2023-10-31T07:40:03;96760.53;;;9.04;100.00
28665;BME280;15850;47.524;7.814;2023-10-31T07:42:28;96749.00;;;9.07;100.00
28665;BME280;15850;47.524;7.814;2023-10-31T07:44:54;96829.97;;;9.53;100.00
28665;BME280;15850;47.524;7.814;2023-10-31T07:47:21;96832.97;;;9.63;100.00
28665;BME280;15850;47.524;7.814;2023-10-31T07:49:46;96733.13;;;9.09;100.00
28665;BME280;15850;47.524;7.814;2023-10-31T07:52:12;96744.94;;;9.17;100.00
28665;BME280;15850;47.524;7.814;2023-10-31T07:54:39;96418.38;;;7.24;100.00
28665;BME280;15850;47.524;7.814;2023-10-31T07:57:04;96832.53;;;10.12;100.00
28665;BME280;15850;47.524;7.814;2023-10-31T07:59:33;96831.81;;;10.16;100.00
28665;BME280;15850;47.524;7.814;2023-10-31T08:01:58;96484.22;;;7.88;100.00
28665;BME280;15850;47.524;7.814;2023-10-31T08:04:25;96613.97;;;8.69;100.00
28665;BME280;15850;47.524;7.814;2023-10-31T08:06:51;96832.91;;;9.95;100.00
28665;BME280;15850;47.524;7.814;2023-10-31T08:09:16;96615.66;;;8.58;100.00
28665;BME280;15850;47.524;7.814;2023-10-31T08:11:42;96722.97;;;9.38;100.00
28665;BME280;15850;47.524;7.814;2023-10-31T08:14:07;96750.19;;;9.41;100.00
28665;BME280;15850;47.524;7.814;2023-10-31T08:16:33;96828.72;;;9.98;100.00
28665;BME280;15850;47.524;7.814;2023-10-31T08:18:58;96850.56;;;10.21;100.00
28665;BME280;15850;47.524;7.814;2023-10-31T08:21:25;96629.25;;;8.93;100.00
28665;BME280;15850;47.524;7.814;2023-10-31T08:23:51;96442.91;;;7.91;100.00
28665;BME280;15850;47.524;7.814;2023-10-31T08:26:16;96672.41;;;9.49;100.00
28665;BME280;15850;47.524;7.814;2023-10-31T08:28:42;96566.41;;;9.07;100.00
28665;BME280;15850;47.524;7.814;2023-10-31T08:31:07;96591.00;;;9.33;100.00
28665;BME280;15850;47.524;7.814;2023-10-31T08:33:33;96793.16;;;10.80;100.00
28665;BME280;15850;47.524;7.814;2023-10-31T08:35:58;96772.84;;;10.55;100.00
28665;BME280;15850;47.524;7.814;2023-10-31T08:38:25;96853.06;;;11.03;100.00
28665;BME280;15850;47.524;7.814;2023-10-31T08:40:51;96393.25;;;8.03;100.00
28665;BME280;15850;47.524;7.814;2023-10-31T08:43:16;96447.19;;;8.59;100.00
28665;BME280;15850;47.524;7.814;2023-10-31T08:45:42;96856.41;;;11.36;100.00
28665;BME280;15850;47.524;7.814;2023-10-31T08:48:07;96850.19;;;11.39;100.00
28665;BME280;15850;47.524;7.814;2023-10-31T08:50:33;96576.75;;;9.75;100.00
28665;BME280;15850;47.524;7.814;2023-10-31T08:52:58;96862.16;;;11.53;100.00
28665;BME280;15850;47.524;7.814;2023-10-31T08:55:25;96868.31;;;11.50;100.00
28665;BME280;15850;47.524;7.814;2023-10-31T08:57:51;96880.06;;;11.55;100.00
28665;BME280;15850;47.524;7.814;2023-10-31T09:00:17;96566.56;;;9.33;100.00
28665;BME280;15850;47.524;7.814;2023-10-31T09:02:42;96859.25;;;11.43;100.00
28665;BME280;15850;47.524;7.814;2023-10-31T09:05:08;96857.97;;;11.60;100.00
28665;BME280;15850;47.524;7.814;2023-10-31T09:07:34;96859.84;;;11.56;100.00
28665;BME280;15850;47.524;7.814;2023-10-31T09:09:59;96854.53;;;11.63;100.00
28665;BME280;15850;47.524;7.814;2023-10-31T09:12:26;96856.63;;;11.73;100.00
28665;BME280;15850;47.524;7.814;2023-10-31T09:14:52;96852.56;;;11.40;100.00
28665;BME280;15850;47.524;7.814;2023-10-31T09:17:17;96854.47;;;11.36;100.00
28665;BME280;15850;47.524;7.814;2023-10-31T09:19:43;96839.31;;;11.62;100.00
28665;BME280;15850;47.524;7.814;2023-10-31T09:22:08;96596.97;;;9.97;100.00
28665;BME280;15850;47.524;7.814;2023-10-31T09:24:34;96849.53;;;11.45;100.00
28665;BME280;15850;47.524;7.814;2023-10-31T09:26:59;96850.88;;;11.78;100.00
28665;BME280;15850;47.524;7.814;2023-10-31T09:29:26;96851.19;;;11.96;100.00
28665;BME280;15850;47.524;7.814;2023-10-31T09:31:52;96823.94;;;11.50;100.00
28665;BME280;15850;47.524;7.814;2023-10-31T09:34:17;96836.47;;;11.55;100.00
28665;BME280;15850;47.524;7.814;2023-10-31T09:36:43;96838.44;;;11.81;100.00
28665;BME280;15850;47.524;7.814;2023-10-31T09:39:08;96847.06;;;12.06;100.00
28665;BME280;15850;47.524;7.814;2023-10-31T09:41:34;96776.16;;;11.79;100.00
28665;BME280;15850;47.524;7.814;2023-10-31T09:44:00;96851.84;;;12.42;100.00
28665;BME280;15850;47.524;7.814;2023-10-31T09:46:28;96756.50;;;11.66;100.00
28665;BME280;15850;47.524;7.814;2023-10-31T09:48:53;96789.78;;;11.79;100.00
28665;BME280;15850;47.524;7.814;2023-10-31T09:51:21;96646.34;;;11.11;100.00
28665;BME280;15850;47.524;7.814;2023-10-31T09:53:47;96726.69;;;11.50;100.00
28665;BME280;15850;47.524;7.814;2023-10-31T09:56:14;96822.94;;;12.38;100.00
28665;BME280;15850;47.524;7.814;2023-10-31T09:58:40;96839.91;;;12.24;100.00
28665;BME280;15850;47.524;7.814;2023-10-31T10:01:05;96807.78;;;12.10;100.00
28665;BME280;15850;47.524;7.814;2023-10-31T10:03:32;96768.19;;;12.20;100.00
28665;BME280;15850;47.524;7.814;2023-10-31T10:05:58;96845.63;;;12.72;100.00
28665;BME280;15850;47.524;7.814;2023-10-31T10:08:24;96786.56;;;12.57;100.00
28665;BME280;15850;47.524;7.814;2023-10-31T10:10:50;96832.72;;;12.69;100.00
28665;BME280;15850;47.524;7.814;2023-10-31T10:13:17;96851.75;;;12.96;100.00
28665;BME280;15850;47.524;7.814;2023-10-31T10:15:45;96840.31;;;12.86;100.00
28665;BME280;15850;47.524;7.814;2023-10-31T10:18:24;96843.06;;;13.24;100.00
28665;BME280;15850;47.524;7.814;2023-10-31T10:20:55;96846.19;;;12.88;100.00
28665;BME280;15850;47.524;7.814;2023-10-31T10:23:21;96787.63;;;12.82;100.00
28665;BME280;15850;47.524;7.814;2023-10-31T10:25:48;96581.72;;;11.34;100.00
28665;BME280;15850;47.524;7.814;2023-10-31T10:28:14;96502.72;;;11.00;100.00
28665;BME280;15850;47.524;7.814;2023-10-31T10:30:39;96787.28;;;12.87;100.00
28665;BME280;15850;47.524;7.814;2023-10-31T10:33:05;96849.47;;;13.35;100.00
28665;BME280;15850;47.524;7.814;2023-10-31T10:35:30;96815.44;;;12.91;100.00
28665;BME280;15850;47.524;7.814;2023-10-31T10:37:58;96855.44;;;13.14;100.00
28665;BME280;15850;47.524;7.814;2023-10-31T10:40:25;96859.38;;;13.16;100.00
28665;BME280;15850;47.524;7.814;2023-10-31T10:42:53;96748.13;;;12.35;100.00
28665;BME280;15850;47.524;7.814;2023-10-31T10:45:23;96784.84;;;12.15;100.00
28665;BME280;15850;47.524;7.814;2023-10-31T10:47:50;96792.41;;;11.98;100.00
28665;BME280;15850;47.524;7.814;2023-10-31T10:50:18;96619.47;;;11.09;100.00
28665;BME280;15850;47.524;7.814;2023-10-31T10:52:48;96860.09;;;12.76;100.00
28665;BME280;15850;47.524;7.814;2023-10-31T10:55:20;96578.91;;;10.74;100.00
28665;BME280;15850;47.524;7.814;2023-10-31T10:57:50;96748.19;;;12.09;100.00
28665;BME280;15850;47.524;7.814;2023-10-31T11:00:17;96573.88;;;11.59;100.00
28665;BME280;15850;47.524;7.814;2023-10-31T11:02:45;96618.59;;;11.88;100.00
28665;BME280;15850;47.524;7.814;2023-10-31T11:05:13;96358.41;;;10.33;100.00
28665;BME280;15850;47.524;7.814;2023-10-31T11:07:41;96256.88;;;9.38;100.00
28665;BME280;15850;47.524;7.814;2023-10-31T11:10:08;96273.34;;;9.76;100.00
28665;BME280;15850;47.524;7.814;2023-10-31T11:12:36;96841.47;;;13.60;100.00
28665;BME280;15850;47.524;7.814;2023-10-31T11:15:03;96843.78;;;13.54;100.00
28665;BME280;15850;47.524;7.814;2023-10-31T11:17:31;96842.44;;;13.78;100.00
28665;BME280;15850;47.524;7.814;2023-10-31T11:19:59;96792.88;;;13.35;100.00
28665;BME280;15850;47.524;7.814;2023-10-31T11:22:24;96841.63;;;13.74;100.00
28665;BME280;15850;47.524;7.814;2023-10-31T11:24:50;96796.09;;;13.45;100.00
28665;BME280;15850;47.524;7.814;2023-10-31T11:27:17;96350.03;;;10.19;100.00
28665;BME280;15850;47.524;7.814;2023-10-31T11:29:44;96660.63;;;12.17;100.00
28665;BME280;15850;47.524;7.814;2023-10-31T11:32:11;96838.63;;;13.46;100.00
28665;BME280;15850;47.524;7.814;2023-10-31T11:34:38;96629.00;;;12.09;100.00
28665;BME280;15850;47.524;7.814;2023-10-31T11:37:23;96837.00;;;13.85;100.00
28665;BME280;15850;47.524;7.814;2023-10-31T11:40:17;96840.72;;;14.11;100.00
28665;BME280;15850;47.524;7.814;2023-10-31T11:42:44;96849.84;;;14.33;100.00
28665;BME280;15850;47.524;7.814;2023-10-31T11:45:13;96853.75;;;14.36;100.00
28665;BME280;15850;47.524;7.814;2023-10-31T11:47:50;96719.75;;;13.73;100.00
28665;BME280;15850;47.524;7.814;2023-10-31T11:50:16;96475.06;;;11.62;100.00
28665;BME280;15850;47.524;7.814;2023-10-31T11:52:42;96665.31;;;12.95;100.00
28665;BME280;15850;47.524;7.814;2023-10-31T11:55:09;96607.72;;;12.22;100.00
28665;BME280;15850;47.524;7.814;2023-10-31T11:57:35;96826.84;;;13.82;100.00
28665;BME280;15850;47.524;7.814;2023-10-31T12:00:00;96487.63;;;11.74;100.00
28665;BME280;15850;47.524;7.814;2023-10-31T12:02:27;96827.13;;;13.70;100.00
28665;BME280;15850;47.524;7.814;2023-10-31T12:05:06;96829.97;;;13.03;100.00
28665;BME280;15850;47.524;7.814;2023-10-31T12:07:41;96891.97;;;13.32;100.00
28665;BME280;15850;47.524;7.814;2023-10-31T12:10:08;96895.91;;;13.35;100.00
28665;BME280;15850;47.524;7.814;2023-10-31T12:12:33;96800.78;;;12.73;100.00
28665;BME280;15850;47.524;7.814;2023-10-31T12:15:04;96900.47;;;13.27;100.00
28665;BME280;15850;47.524;7.814;2023-10-31T12:17:31;96547.97;;;10.59;100.00
28665;BME280;15850;47.524;7.814;2023-10-31T12:19:58;96914.19;;;13.01;100.00
28665;BME280;15850;47.524;7.814;2023-10-31T12:22:24;96911.25;;;13.16;100.00
28665;BME280;15850;47.524;7.814;2023-10-31T12:24:49;96917.25;;;12.96;100.00
28665;BME280;15850;47.524;7.814;2023-10-31T12:27:15;96576.53;;;10.72;100.00
28665;BME280;15850;47.524;7.814;2023-10-31T12:29:40;96917.31;;;12.99;100.00
28665;BME280;15850;47.524;7.814;2023-10-31T12:32:12;96891.81;;;12.58;100.00
28665;BME280;15850;47.524;7.814;2023-10-31T12:34:43;96917.84;;;12.78;100.00
28665;BME280;15850;47.524;7.814;2023-10-31T12:37:09;96903.47;;;13.15;100.00
28665;BME280;15850;47.524;7.814;2023-10-31T12:39:35;96877.41;;;12.91;100.00
28665;BME280;15850;47.524;7.814;2023-10-31T12:42:02;96914.13;;;13.27;100.00
28665;BME280;15850;47.524;7.814;2023-10-31T12:44:28;96913.28;;;13.57;100.00
28665;BME280;15850;47.524;7.814;2023-10-31T12:46:54;96912.38;;;13.42;100.00
28665;BME280;15850;47.524;7.814;2023-10-31T12:49:20;96911.41;;;13.61;100.00
28665;BME280;15850;47.524;7.814;2023-10-31T12:51:56;96817.09;;;13.03;100.00
28665;BME280;15850;47.524;7.814;2023-10-31T12:54:27;96815.50;;;12.99;100.00